Weather observations for the past three days for
Aitkin Municipal Airport - Steve Kurtz Field
Imperial (Metric)
Date Time (cdt) Wind (mph) Vis. (mi.) Weather Sky Cond. Temperature (ºF) Relative Humidity Wind Chill (°F) Heat Index (°F) Pressure Precipitation (in)
Air Dwpt 6 hour altimeter (in) sea level (mb) 1 hr 3 hr 6 hr
Max. Min.
05 08:15 Calm 4.00 Fog/Mist OVC004 62.6 62.2 99% 30.07 0.0
05 07:55 Vrbl 3 6.00 Fog/Mist OVC005 62.1 62.1 100% 30.06 0.0
05 07:35 E 5 4.00 Fog/Mist OVC005 61.5 61.5 100% 30.06 0.0
05 07:15 Calm 5.00 Fog/Mist OVC006 61.5 61.3 99% 30.06 0.0
05 06:55 E 3 8.00 Overcast OVC004 61.5 61.2 62.8 61.2 99% 30.06 0.0
05 06:35 E 5 8.00 Overcast OVC004 61.3 61 99% 30.06 0.0
05 06:15 SE 5 7.00 Overcast OVC004 61.3 61.3 100% 30.06 0.0
05 05:55 E 6 8.00 Overcast OVC003 61.3 61 99% 30.04 0.0
05 05:35 SE 8 8.00 Overcast OVC003 61.3 61.3 100% 30.02 0.0
05 05:15 E 8 6.00 Fog/Mist OVC003 61.3 61.3 100% 30.01 0.0
05 04:55 E 6 7.00 Overcast OVC003 61.3 61.3 100% 30.01 0.0
05 04:35 E 5 6.00 Fog/Mist OVC002 61.3 61.3 100% 30.02 0.0
05 04:15 E 7 7.00 Overcast OVC003 61.5 61.5 100% 30.03 0.0
05 03:55 E 6 8.00 Overcast OVC004 62.1 61.5 98% 30.04 0.0
05 03:35 Vrbl 6 9.00 Overcast OVC004 61.9 61.5 99% 30.04 0.0
05 03:15 E 5 9.00 Overcast OVC004 62.2 61.5 98% 30.04 0.0
05 02:55 E 6 9.00 Overcast OVC004 62.1 61.3 98% 30.04 0.0
05 02:35 E 3 10.00 Overcast OVC004 62.2 61.7 98% 30.04 0.0
05 02:15 E 5 10.00 Overcast OVC004 62.2 61.5 98% 30.04 0.0
05 01:55 E 6 10.00 Overcast OVC005 62.6 61.5 96% 30.03 0.0
05 01:35 E 3 10.00 Overcast OVC005 62.8 61.7 96% 30.03 0.0
05 01:15 Calm 10.00 Overcast OVC006 62.8 61.7 96% 30.03 0.0
05 00:55 E 5 10.00 Overcast OVC005 63 61.9 69.6 63 96% 30.04 0.0
05 00:35 E 5 9.00 Overcast OVC007 63.1 61.9 96% 30.04 0.0
05 00:15 E 3 10.00 Overcast SCT008 OVC016 63.3 62.1 96% 30.04 0.0
04 23:55 E 5 10.00 Overcast FEW007 OVC015 63.9 62.2 95% 30.05 0.0
04 23:35 NE 3 10.00 Overcast OVC014 64 62.2 94% 30.05 0.0
04 23:15 E 5 10.00 Overcast OVC014 64.4 62.4 93% 30.04 0.0
04 22:55 Calm 10.00 Overcast OVC014 64.6 62.6 93% 30.04 0.0
04 22:35 E 3 10.00 Overcast OVC014 64.9 62.6 92% 30.04 0.0
04 22:15 E 7 10.00 Overcast FEW008 OVC014 64.9 62.6 92% 30.04 0.0
04 21:55 E 6 10.00 Overcast OVC014 65.7 63.7 93% 30.02 0.0
04 21:35 E 7 10.00 Overcast OVC014 66 63.7 92% 30.02 0.0
04 21:15 E 7 10.00 Overcast OVC014 67.1 64.6 92% 30.02 0.0
04 20:55 E 6 10.00 Overcast OVC015 67.8 64.8 90% 30.02 0.0
04 20:35 E 7 10.00 Overcast OVC016 68.2 65.1 90% 30.01 0.0
04 20:15 E 3 10.00 Overcast OVC015 68.5 64.9 88% 30 0.0
04 19:55 NE 5 10.00 Overcast OVC015 68.7 64.4 86% 30 0.0
04 19:35 NE 3 9.00 Overcast OVC014 68.9 64.6 86% 30 0.0
04 19:15 NE 3 10.00 Overcast OVC017 69.3 64 84% 30 0.0
04 18:55 NE 6 10.00 Overcast OVC015 69.4 64.6 73.2 67.1 85% 30 0.0
04 18:35 NE 3 10.00 Overcast OVC015 69.4 64.4 84% 30 0.0
04 18:15 Vrbl 3 10.00 Overcast OVC015 69.6 64.4 84% 29.99 0.0
04 17:55 E 6 10.00 Overcast OVC014 69.4 63.9 83% 29.99 0.0
04 17:35 NE 6 10.00 Overcast OVC013 69.3 63.9 83% 29.99 0.0
04 17:15 NE 6 10.00 Overcast OVC014 69.1 63.5 83% 29.99 0.0
04 16:55 NE 7 10.00 Overcast OVC014 70 64.2 82% 29.99 0.0
04 16:35 Vrbl 6 10.00 Mostly Cloudy BKN015 70.3 64.2 81% 29.98 0.0
04 16:15 NE 9 10.00 Mostly Cloudy BKN017 71.4 64 78% 29.98 0.0
04 15:55 NE 7 10.00 Mostly Cloudy BKN017 71.8 64.4 78% 29.97 0.0
04 15:35 NE 8 10.00 Mostly Cloudy BKN017 72.3 64.8 77% 29.97 0.0
04 15:15 E 8 10.00 Mostly Cloudy BKN017 73 64.9 76% 29.97 0.0
04 14:55 N 6 10.00 Mostly Cloudy BKN015 72.3 64.4 76% 29.97 0.0
04 14:35 NE 7 10.00 Mostly Cloudy BKN014 71.4 64.6 79% 29.97 0.0
04 14:15 N 6 10.00 Overcast OVC012 70.3 64.8 83% 29.97 0.0
04 13:55 Calm 10.00 Overcast OVC010 69.4 64.6 85% 29.98 0.0
04 13:35 NE 5 10.00 Overcast OVC009 68.7 64.4 86% 29.98 0.0
04 13:15 Vrbl 5 10.00 Overcast OVC008 67.8 64.2 88% 29.98 0.0
04 12:55 NE 8 10.00 Overcast OVC008 67.1 64.2 67.5 61.2 91% 29.97 0.0
04 12:35 E 6 10.00 Overcast OVC008 67.1 64.4 91% 29.97 0.0
04 12:15 NE 7 10.00 Overcast OVC006 66.7 63.9 91% 29.97 0.0
04 11:55 NE 7 10.00 Overcast OVC005 65.8 63.9 93% 29.97 0.0
04 11:35 NE 5 10.00 Overcast OVC005 64.9 63.3 95% 29.97 0.0
04 11:15 N 7 10.00 Overcast OVC005 64.9 63.5 95% 29.96 0.0
04 10:55 NE 6 9.00 Overcast OVC004 63.7 62.8 97% 29.96 0.0
04 10:35 E 5 8.00 Overcast OVC004 63 62.6 99% 29.96 0.0
04 10:15 E 6 8.00 Overcast OVC004 63 62.4 98% 29.95 0.0
04 09:55 NE 5 7.00 Overcast OVC003 62.2 62.2 100% 29.94 0.0
04 09:35 NE 5 2.00 Fog/Mist OVC002 62.1 62.1 100% 29.94 0.0
04 09:15 NE 7 1.00 Fog/Mist VV002 62.1 62.1 100% 29.94 0.0
04 08:55 NE 7 0.50 Fog VV002 62.1 62.1 100% 29.93 0.0
04 08:35 NE 6 0.50 Fog VV002 62.1 62.1 100% 29.93 0.0
04 08:15 NE 7 0.50 Fog VV002 62.2 62.2 100% 29.92 0.0
04 07:55 NE 3 0.25 Fog VV002 61.7 61.7 100% 29.9 0.0
04 07:35 NE 3 0.25 Fog VV002 61.5 61.5 100% 29.9 0.0
04 07:15 Calm 0.15 Fog VV002 61.3 61.3 100% 29.89 0.0
04 06:55 SE 5 0.25 Fog VV002 61.2 61.2 64.4 58.3 100% 29.87 0.0
04 06:35 E 3 1.00 Fog/Mist VV002 61.2 61.2 100% 29.87 0.0
04 06:15 SE 3 1.00 Fog/Mist VV003 60.4 60.4 100% 29.86 0.0
04 05:55 N 3 1.00 Fog/Mist CLR 58.5 58.5 100% 29.87 0.0
04 05:35 Calm 7.00 Fair CLR 59.7 59.7 100% 29.86 0.0
04 05:15 Calm 8.00 Fair CLR 60.4 60.4 100% 29.86 0.0
04 04:55 Calm 9.00 Fair CLR 61.7 61.7 100% 29.86 0.0
04 04:35 NE 5 9.00 Fair CLR 61.7 61.5 99% 29.85 0.0
04 04:15 SE 3 10.00 Mostly Cloudy BKN028 63 62.1 97% 29.85 0.0
04 03:55 SE 3 9.00 Overcast OVC027 63.3 62.4 97% 29.85 0.0
04 03:35 Calm 10.00 Overcast OVC027 63.5 62.4 96% 29.85 0.0
04 03:15 SE 6 10.00 Overcast OVC027 63.7 62.4 96% 29.85 0.0
04 02:35 E 3 10.00 Overcast OVC030 64.2 62.2 93% 29.85 0.0
04 02:15 SE 14 10.00 Overcast OVC032 63.9 61.9 93% 29.83 0.0
04 01:55 SE 10 10.00 Overcast FEW023 OVC035 63.5 61.3 93% 29.87 0.0
04 01:35 Vrbl 5 8.00 Light Rain Thunderstorm in Vicinity SCT012 BKN021 OVC036 63.5 60.8 91% 29.87 0.0
04 01:15 NW 10 9.00 Thunderstorm in Vicinity OVC011 63.1 60.6 92% 29.94 0.0
04 00:55 NE 13 G 20 10.00 Overcast OVC006 62.6 60.6 75.6 62.1 93% 29.89 0.0 0.1
04 00:35 N 13 10.00 Overcast OVC006 62.6 61.7 97% 29.88 0.0
04 00:15 E 8 10.00 Overcast OVC006 62.6 61.5 96% 29.84 0.0
03 23:55 E 9 10.00 Overcast OVC007 62.4 61.3 96% 29.85 0.0
03 23:35 E 10 10.00 Overcast OVC007 62.2 61 96% 29.85 0.0
03 23:15 E 7 10.00 Mostly Cloudy BKN008 62.1 60.8 96% 29.85 0.0
03 22:55 E 7 10.00 Fair CLR 62.1 60.8 96% 29.85 0.0
03 22:35 E 9 10.00 Partly Cloudy SCT042 62.4 60.8 94% 29.85 0.0
03 22:15 E 10 10.00 Overcast OVC040 63 60.8 93% 29.87 0.0
03 21:55 E 10 10.00 Mostly Cloudy BKN043 63.3 61 92% 29.86 0.0 0.1
03 21:35 E 8 10.00 Mostly Cloudy BKN043 BKN060 64 61.7 92% 29.86 0.0
03 21:15 NE 10 10.00 Mostly Cloudy FEW029 BKN046 64.8 62.1 91% 29.85 0.0
03 20:55 E 8 3.00 Rain Fog/Mist Thunderstorm in Vicinity FEW006 BKN033 OVC050 65.8 63.1 91% 29.85 0.0 0.1
03 20:35 E 8 4.00 Rain Thunderstorm in Vicinity BKN035 OVC055 68.2 62.4 82% 29.87 0.0 0.03
03 20:15 NE 9 10.00 Overcast SCT029 OVC036 71.6 59.7 66% 29.84 0.0
03 19:55 NE 12 9.00 Overcast FEW030 OVC036 72 61.9 71% 29.84 0.0
03 19:35 NE 8 9.00 Overcast BKN038 OVC047 72.9 62.6 70% 29.83 0.0
03 19:15 NE 8 9.00 Overcast BKN041 OVC050 74.5 64.6 71% 29.82 0.0
03 18:55 E 10 9.00 Overcast BKN044 OVC055 76.1 65.3 86.7 76.1 69% 78 29.8 0.0
03 18:35 E 8 9.00 Overcast BKN043 OVC055 77 66.4 70% 79 29.79 0.0
03 18:15 E 7 10.00 Overcast OVC043 78.1 67.3 70% 80 29.79 0.0
03 17:55 E 8 10.00 Overcast OVC045 79 68.4 70% 81 29.78 0.0
03 17:35 E 9 10.00 Overcast OVC047 80.2 68.2 67% 83 29.79 0.0
03 17:15 E 7 9.00 Mostly Cloudy BKN048 81.3 68.4 65% 84 29.78 0.0
03 16:55 E 9 10.00 Mostly Cloudy BKN045 83.1 68.7 62% 87 29.77 0.0
03 16:35 E 12 G 16 10.00 Mostly Cloudy BKN045 82.8 68.7 63% 86 29.76 0.0
03 16:15 E 10 10.00 A Few Clouds FEW044 83.8 69.1 61% 88 29.78 0.0
03 15:55 SE 9 10.00 Partly Cloudy SCT040 85.6 69.1 58% 90 29.78 0.0
03 15:35 E 12 10.00 Mostly Cloudy BKN040 85.8 69.1 57% 90 29.78 0.0
03 15:15 E 9 10.00 Partly Cloudy SCT040 86.2 70.3 59% 91 29.79 0.0
03 14:55 E 8 10.00 Fair CLR 83.5 69.3 62% 87 29.8 0.0
03 14:35 E 8 10.00 Fair CLR 82.2 68.9 64% 86 29.8 0.0
03 14:15 E 8 10.00 Fair CLR 84 69.3 61% 88 29.8 0.0
03 13:55 E 13 10.00 Fair CLR 83.5 68.4 60% 87 29.81 0.0
03 13:35 SE 12 10.00 Fair CLR 81.7 68.4 64% 85 29.82 0.0
03 13:15 E 10 10.00 A Few Clouds FEW034 82.4 68.5 63% 86 29.83 0.0
03 12:55 E 12 10.00 Mostly Cloudy BKN037 BKN070 81.5 67.5 81.9 61.5 63% 84 29.83 0.0
03 12:35 E 9 10.00 Overcast BKN037 BKN048 OVC060 80.6 67.5 64% 83 29.84 0.0
03 12:15 SE 7 10.00 Mostly Cloudy BKN047 81.1 67.3 63% 84 29.84 0.0
03 11:55 E 9 10.00 Partly Cloudy SCT048 79.3 65.8 63% 81 29.85 0.0
03 11:35 E 10 10.00 Fair CLR 78.3 64.9 64% 80 29.85 0.0
03 11:15 E 10 10.00 Fair CLR 78.8 64.6 62% 81 29.86 0.0
03 10:55 E 9 10.00 Fair CLR 77.4 63.7 63% 79 29.87 0.0
03 10:35 E 8 10.00 Fair CLR 75.9 62.6 63% 78 29.87 0.0
03 10:15 E 7 10.00 Fair CLR 74.8 62.2 65% 29.87 0.0
03 09:55 E 9 10.00 Fair CLR 72.1 61 68% 29.87 0.0
03 09:35 E 8 10.00 Fair CLR 71.2 60.8 70% 29.87 0.0
03 09:15 E 7 10.00 A Few Clouds FEW039 69.1 60.3 74% 29.88 0.0
03 08:55 E 5 10.00 Fair CLR 66.4 59.7 79% 29.89 0.0
03 08:35 E 8 10.00 A Few Clouds FEW035 64.9 59.7 83% 29.89 0.0
03 08:15 NE 7 9.00 Mostly Cloudy BKN034 63.7 59.5 86% 29.89 0.0
03 07:55 E 6 9.00 Overcast OVC028 62.6 59.2 89% 29.9 0.0
03 07:35 E 3 9.00 Overcast OVC028 62.1 59.2 90% 29.9 0.0
03 07:15 E 5 9.00 Overcast SCT028 BKN040 OVC060 61.7 58.8 90% 29.9 0.0
03 06:55 NE 3 9.00 Mostly Cloudy BKN035 BKN043 BKN050 61.2 59 62.1 58.5 93% 29.89 0.0
03 06:35 NE 3 9.00 Mostly Cloudy SCT033 BKN040 BKN050 61 58.8 93% 29.89 0.0
03 06:15 NE 3 10.00 Mostly Cloudy BKN043 BKN050 61 58.6 92% 29.89 0.0
03 05:55 NE 5 10.00 Overcast BKN039 OVC048 60.4 58.8 94% 29.89 0.0
03 05:35 Vrbl 3 10.00 Overcast BKN040 OVC049 60.8 58.6 93% 29.89 0.0
03 05:15 E 5 10.00 Overcast OVC039 60.6 58.6 93% 29.89 0.0
03 04:55 NE 3 10.00 Overcast BKN041 OVC050 60.1 58.3 94% 29.89 0.0
03 04:35 NE 3 10.00 Mostly Cloudy BKN042 59.5 57.9 94% 29.89 0.0
03 04:15 NE 3 10.00 Fair CLR 59.4 57.9 95% 29.89 0.0
03 03:55 E 5 10.00 Fair CLR 59.2 57.9 96% 29.88 0.0
03 03:35 Calm 10.00 Fair CLR 58.8 57.9 97% 29.89 0.0
03 03:15 Calm 9.00 Fair CLR 60.4 58.5 93% 29.89 0.0
03 02:55 E 3 10.00 Fair CLR 60.3 58.6 94% 29.89 0.0
03 02:35 NE 3 10.00 Fair CLR 60.6 59 94% 29.89 0.0
03 02:15 E 3 10.00 Fair CLR 61 59.2 94% 29.9 0.0
03 01:55 NE 3 9.00 Fair CLR 61.5 59.5 93% 29.9 0.0
03 01:35 NE 5 9.00 Fair CLR 61.5 59.7 94% 29.9 0.0
03 01:15 NE 5 10.00 Fair CLR 61.9 59.9 93% 29.91 0.0
03 00:55 E 3 10.00 A Few Clouds FEW090 62.4 59.9 74.8 62.2 92% 29.91 0.0
03 00:35 NE 5 10.00 Partly Cloudy SCT090 62.6 59.7 90% 29.91 0.0
03 00:15 NE 3 10.00 Mostly Cloudy BKN090 63.7 59.9 88% 29.91 0.0
02 23:55 E 5 10.00 A Few Clouds FEW090 64.4 60.1 86% 29.92 0.0
02 23:35 E 5 10.00 Fair CLR 65.3 59.9 83% 29.92 0.0
02 23:15 NE 3 10.00 Partly Cloudy SCT090 65.3 60.8 85% 29.92 0.0
02 22:55 NE 5 10.00 Overcast OVC090 64.9 62.1 90% 29.92 0.0
02 22:35 NE 3 10.00 Thunderstorm in Vicinity OVC090 62.8 61.7 96% 29.92 0.0
02 22:15 Calm 10.00 Thunderstorm in Vicinity BKN090 BKN110 63.5 61.5 93% 29.93 0.0
02 21:55 Calm 9.00 Partly Cloudy FEW090 SCT110 62.6 61.5 96% 29.92 0.0
02 21:35 Calm 9.00 Mostly Cloudy BKN095 BKN110 63.5 61.7 94% 29.92 0.0
02 21:15 Calm 10.00 Partly Cloudy FEW100 SCT120 63.1 61.7 95% 29.91 0.0
02 20:55 N 5 10.00 Partly Cloudy SCT120 63 61.7 96% 29.91 0.0
02 20:35 Calm 9.00 Fair CLR 63.3 61.9 95% 29.9 0.0
02 20:15 Calm 9.00 Fair CLR 64 62.6 95% 29.9 0.0
02 19:55 Calm 8.00 Light Rain CLR 67.3 63.5 88% 29.89 0.0
02 19:35 Calm 8.00 Fair CLR 68.7 63.7 84% 29.89 0.0
02 19:15 Calm 9.00 Fair CLR 72.5 65.7 79% 29.89 0.0
02 18:55 Calm 9.00 Fair CLR 76.6 61.9 80.6 76.6 60% 78 29.89 0.0
02 18:35 Calm 9.00 Fair CLR 78.4 58.1 50% 80 29.89 0.0
02 18:15 Calm 9.00 Fair CLR 79.9 54.9 42% 80 29.9 0.0
02 17:55 Calm 10.00 Fair CLR 79.5 55 43% 80 29.9 0.0
02 17:35 Calm 10.00 Fair CLR 80.1 54.3 41% 80 29.9 0.0
02 17:15 Calm 10.00 Fair CLR 80.1 52.7 39% 80 29.9 0.0
02 16:55 Calm 10.00 Fair CLR 80.1 54 41% 80 29.9 0.0
02 16:35 Vrbl 3 10.00 Fair CLR 79.9 54.1 41% 80 29.9 0.0
02 16:15 NW 5 10.00 Fair CLR 79.7 53.1 40% 80 29.9 0.0
02 15:55 Calm 10.00 Fair CLR 79.3 52.9 40% 79 29.91 0.0
02 15:35 Vrbl 3 10.00 Fair CLR 79 54.5 43% 79 29.91 0.0
02 15:15 W 3 10.00 Fair CLR 78.1 55.8 46% 79 29.91 0.0
02 14:55 Calm 10.00 Fair CLR 78.8 55.2 44% 79 29.91 0.0
02 14:35 Vrbl 5 10.00 Fair CLR 79.7 55.9 44% 80 29.92 0.0
02 14:15 W 3 10.00 Fair CLR 79 56.7 46% 80 29.92 0.0
02 13:55 SW 3 10.00 Fair CLR 79.3 56.1 45% 80 29.93 0.0
02 13:35 Calm 10.00 Fair CLR 77.9 56.8 48% 79 29.92 0.0
02 13:15 SW 6 10.00 Fair CLR 78.4 57.2 48% 79 29.93 0.0
02 12:55 Vrbl 6 10.00 Fair CLR 78.4 57 78.4 52.9 48% 79 29.93 0.0
02 12:35 Calm 10.00 Fair CLR 76.8 56.3 49% 78 29.93 0.0
02 12:15 N 6 10.00 Fair CLR 77 57.4 51% 79 29.93 0.0
02 11:55 W 3 10.00 Fair CLR 75.6 56.1 51% 78 29.93 0.0
02 11:35 NW 5 10.00 Fair CLR 75.2 59 57% 78 29.94 0.0
02 11:15 Vrbl 3 10.00 Fair CLR 75.2 59.4 58% 78 29.94 0.0
02 10:55 Calm 10.00 Fair CLR 73.6 58.8 60% 29.94 0.0
02 10:35 Calm 10.00 Fair CLR 73.4 61 65% 29.94 0.0
02 10:15 Calm 10.00 Fair CLR 72.1 61.3 69% 29.94 0.0
02 09:55 NE 3 10.00 Fair CLR 69.6 60.8 74% 29.94 0.0
02 09:35 Calm 9.00 Fair CLR 69.3 59.9 72% 29.94 0.0
02 09:15 Calm 10.00 Fair CLR 67.5 60.1 77% 29.94 0.0
02 08:55 Calm 10.00 Fair CLR 65.8 61 84% 29.94 0.0
02 08:35 N 3 10.00 Fair CLR 64 60.8 89% 29.94 0.0
Date Time (cdt) Wind (mph) Vis. (mi.) Weather Sky Cond. Air Dwpt Max. Min. Relative Humidity Wind Chill (°F) Heat Index (°F) altimeter (in) sea level (mb) 1 hr 3 hr 6 hr
6 hour
Temperature (ºF) Pressure Precipitation (in)